sensor_id;sensor_type;location;lat;lon;timestamp;pressure;altitude;pressure_sealevel;temperature;humidity
46211;BME280;52144;48.040;-1.594;2023-05-19T00:00:11;102087.63;;;13.03;73.34
46211;BME280;52144;48.040;-1.594;2023-05-19T00:02:41;102097.25;;;13.35;72.17
46211;BME280;52144;48.040;-1.594;2023-05-19T00:05:10;102090.13;;;12.82;74.42
46211;BME280;52144;48.040;-1.594;2023-05-19T00:07:42;102087.16;;;13.17;73.51
46211;BME280;52144;48.040;-1.594;2023-05-19T00:10:11;102091.75;;;12.87;75.48
46211;BME280;52144;48.040;-1.594;2023-05-19T00:12:39;102084.34;;;12.95;74.20
46211;BME280;52144;48.040;-1.594;2023-05-19T00:15:11;102086.09;;;12.96;75.23
46211;BME280;52144;48.040;-1.594;2023-05-19T00:17:38;102085.69;;;12.81;76.10
46211;BME280;52144;48.040;-1.594;2023-05-19T00:20:08;102080.31;;;12.55;77.12
46211;BME280;52144;48.040;-1.594;2023-05-19T00:22:38;102091.69;;;12.61;77.10
46211;BME280;52144;48.040;-1.594;2023-05-19T00:25:06;102088.13;;;12.61;77.66
46211;BME280;52144;48.040;-1.594;2023-05-19T00:27:34;102076.47;;;12.35;79.53
46211;BME280;52144;48.040;-1.594;2023-05-19T00:30:02;102068.16;;;12.44;79.13
46211;BME280;52144;48.040;-1.594;2023-05-19T00:32:31;102069.41;;;12.34;78.70
46211;BME280;52144;48.040;-1.594;2023-05-19T00:34:59;102069.53;;;12.30;79.88
46211;BME280;52144;48.040;-1.594;2023-05-19T00:37:27;102067.34;;;12.42;79.63
46211;BME280;52144;48.040;-1.594;2023-05-19T00:39:55;102069.34;;;12.64;78.50
46211;BME280;52144;48.040;-1.594;2023-05-19T00:42:23;102079.84;;;12.42;80.28
46211;BME280;52144;48.040;-1.594;2023-05-19T00:44:51;102078.41;;;12.32;81.23
46211;BME280;52144;48.040;-1.594;2023-05-19T00:47:19;102074.47;;;12.70;78.60
46211;BME280;52144;48.040;-1.594;2023-05-19T00:49:48;102072.00;;;12.91;77.57
46211;BME280;52144;48.040;-1.594;2023-05-19T00:52:16;102074.06;;;12.82;78.23
46211;BME280;52144;48.040;-1.594;2023-05-19T00:54:44;102080.13;;;12.88;77.30
46211;BME280;52144;48.040;-1.594;2023-05-19T00:57:13;102074.16;;;12.79;79.54
46211;BME280;52144;48.040;-1.594;2023-05-19T00:59:41;102081.38;;;13.02;76.26
46211;BME280;52144;48.040;-1.594;2023-05-19T01:02:09;102077.19;;;12.69;79.01
46211;BME280;52144;48.040;-1.594;2023-05-19T01:04:37;102081.69;;;12.40;81.24
46211;BME280;52144;48.040;-1.594;2023-05-19T01:07:08;102073.91;;;12.60;79.67
46211;BME280;52144;48.040;-1.594;2023-05-19T01:09:38;102083.38;;;12.14;83.49
46211;BME280;52144;48.040;-1.594;2023-05-19T01:12:06;102071.59;;;12.21;81.81
46211;BME280;52144;48.040;-1.594;2023-05-19T01:14:34;102071.91;;;12.39;80.45
46211;BME280;52144;48.040;-1.594;2023-05-19T01:17:07;102067.63;;;12.33;82.70
46211;BME280;52144;48.040;-1.594;2023-05-19T01:19:49;102070.75;;;12.19;83.48
46211;BME280;52144;48.040;-1.594;2023-05-19T01:23:00;102070.88;;;12.43;81.56
46211;BME280;52144;48.040;-1.594;2023-05-19T01:25:53;102066.38;;;11.87;85.34
46211;BME280;52144;48.040;-1.594;2023-05-19T01:31:26;102073.50;;;11.87;86.49
46211;BME280;52144;48.040;-1.594;2023-05-19T01:33:55;102061.56;;;12.00;85.67
46211;BME280;52144;48.040;-1.594;2023-05-19T01:36:25;102069.66;;;12.25;84.08
46211;BME280;52144;48.040;-1.594;2023-05-19T01:38:55;102067.63;;;11.74;86.90
46211;BME280;52144;48.040;-1.594;2023-05-19T01:41:25;102068.22;;;12.15;84.64
46211;BME280;52144;48.040;-1.594;2023-05-19T01:43:55;102075.28;;;11.56;89.80
46211;BME280;52144;48.040;-1.594;2023-05-19T01:46:25;102072.91;;;11.77;88.51
46211;BME280;52144;48.040;-1.594;2023-05-19T01:48:53;102066.28;;;11.90;87.34
46211;BME280;52144;48.040;-1.594;2023-05-19T01:51:21;102074.00;;;12.29;83.42
46211;BME280;52144;48.040;-1.594;2023-05-19T01:53:49;102072.16;;;12.03;86.32
46211;BME280;52144;48.040;-1.594;2023-05-19T01:56:23;102063.03;;;12.38;84.98
46211;BME280;52144;48.040;-1.594;2023-05-19T01:59:00;102062.72;;;11.91;88.42
46211;BME280;52144;48.040;-1.594;2023-05-19T02:01:36;102060.97;;;12.18;86.97
46211;BME280;52144;48.040;-1.594;2023-05-19T02:04:16;102063.88;;;12.39;85.03
46211;BME280;52144;48.040;-1.594;2023-05-19T02:06:54;102065.59;;;12.41;85.60
46211;BME280;52144;48.040;-1.594;2023-05-19T02:09:33;102064.81;;;12.10;85.77
46211;BME280;52144;48.040;-1.594;2023-05-19T02:12:09;102062.88;;;11.85;90.15
46211;BME280;52144;48.040;-1.594;2023-05-19T02:14:38;102054.59;;;11.94;88.64
46211;BME280;52144;48.040;-1.594;2023-05-19T02:17:09;102060.69;;;11.99;89.64
46211;BME280;52144;48.040;-1.594;2023-05-19T02:19:39;102060.44;;;11.76;90.34
46211;BME280;52144;48.040;-1.594;2023-05-19T02:22:07;102061.63;;;11.65;91.63
46211;BME280;52144;48.040;-1.594;2023-05-19T02:24:35;102064.75;;;11.81;91.95
46211;BME280;52144;48.040;-1.594;2023-05-19T02:27:03;102057.00;;;11.72;92.51
46211;BME280;52144;48.040;-1.594;2023-05-19T02:29:31;102059.28;;;11.55;93.82
46211;BME280;52144;48.040;-1.594;2023-05-19T02:31:59;102061.50;;;11.70;93.58
46211;BME280;52144;48.040;-1.594;2023-05-19T02:34:29;102069.28;;;11.78;92.37
46211;BME280;52144;48.040;-1.594;2023-05-19T02:36:57;102069.47;;;11.72;93.15
46211;BME280;52144;48.040;-1.594;2023-05-19T02:39:24;102065.41;;;11.90;92.83
46211;BME280;52144;48.040;-1.594;2023-05-19T02:41:54;102064.00;;;12.08;89.07
46211;BME280;52144;48.040;-1.594;2023-05-19T02:44:22;102060.75;;;11.96;90.40
46211;BME280;52144;48.040;-1.594;2023-05-19T02:46:50;102060.84;;;11.95;91.42
46211;BME280;52144;48.040;-1.594;2023-05-19T02:49:17;102065.72;;;12.09;91.14
46211;BME280;52144;48.040;-1.594;2023-05-19T02:51:47;102064.59;;;11.86;92.51
46211;BME280;52144;48.040;-1.594;2023-05-19T02:54:14;102059.22;;;11.89;91.99
46211;BME280;52144;48.040;-1.594;2023-05-19T02:56:42;102057.53;;;11.85;91.84
46211;BME280;52144;48.040;-1.594;2023-05-19T02:59:10;102045.84;;;11.89;93.65
46211;BME280;52144;48.040;-1.594;2023-05-19T03:01:38;102048.09;;;11.42;94.24
46211;BME280;52144;48.040;-1.594;2023-05-19T03:04:06;102045.63;;;11.65;94.72
46211;BME280;52144;48.040;-1.594;2023-05-19T03:06:33;102052.06;;;11.58;94.28
46211;BME280;52144;48.040;-1.594;2023-05-19T03:09:03;102038.06;;;11.80;93.79
46211;BME280;52144;48.040;-1.594;2023-05-19T03:11:31;102042.41;;;11.84;93.61
46211;BME280;52144;48.040;-1.594;2023-05-19T03:13:59;102041.69;;;11.79;93.45
46211;BME280;52144;48.040;-1.594;2023-05-19T03:16:26;102045.94;;;12.16;90.88
46211;BME280;52144;48.040;-1.594;2023-05-19T03:18:55;102051.06;;;11.94;91.23
46211;BME280;52144;48.040;-1.594;2023-05-19T03:21:23;102045.19;;;11.81;92.31
46211;BME280;52144;48.040;-1.594;2023-05-19T03:23:50;102042.59;;;11.78;91.30
46211;BME280;52144;48.040;-1.594;2023-05-19T03:26:19;102042.84;;;12.00;90.87
46211;BME280;52144;48.040;-1.594;2023-05-19T03:28:48;102042.31;;;11.89;91.33
46211;BME280;52144;48.040;-1.594;2023-05-19T03:31:16;102030.28;;;12.03;90.17
46211;BME280;52144;48.040;-1.594;2023-05-19T03:33:44;102034.50;;;11.81;90.96
46211;BME280;52144;48.040;-1.594;2023-05-19T03:36:11;102037.13;;;11.82;90.08
46211;BME280;52144;48.040;-1.594;2023-05-19T03:38:39;102033.63;;;12.10;90.02
46211;BME280;52144;48.040;-1.594;2023-05-19T03:41:07;102043.97;;;12.21;88.67
46211;BME280;52144;48.040;-1.594;2023-05-19T03:43:36;102050.25;;;11.90;89.08
46211;BME280;52144;48.040;-1.594;2023-05-19T03:46:04;102039.50;;;11.93;89.67
46211;BME280;52144;48.040;-1.594;2023-05-19T03:48:32;102045.53;;;11.69;91.87
46211;BME280;52144;48.040;-1.594;2023-05-19T03:51:00;102042.81;;;12.01;91.20
46211;BME280;52144;48.040;-1.594;2023-05-19T03:53:29;102046.19;;;12.07;89.25
46211;BME280;52144;48.040;-1.594;2023-05-19T03:55:57;102047.19;;;12.04;89.12
46211;BME280;52144;48.040;-1.594;2023-05-19T03:58:26;102050.44;;;12.14;88.92
46211;BME280;52144;48.040;-1.594;2023-05-19T04:00:56;102051.47;;;12.10;89.87
46211;BME280;52144;48.040;-1.594;2023-05-19T04:03:24;102052.06;;;11.88;90.69
46211;BME280;52144;48.040;-1.594;2023-05-19T04:05:52;102050.06;;;11.96;90.12
46211;BME280;52144;48.040;-1.594;2023-05-19T04:08:20;102043.53;;;11.77;90.94
46211;BME280;52144;48.040;-1.594;2023-05-19T04:10:48;102050.34;;;11.87;92.34
46211;BME280;52144;48.040;-1.594;2023-05-19T04:13:15;102046.19;;;11.77;91.72
46211;BME280;52144;48.040;-1.594;2023-05-19T04:15:43;102051.06;;;11.94;92.72
46211;BME280;52144;48.040;-1.594;2023-05-19T04:18:13;102044.53;;;12.02;90.16
46211;BME280;52144;48.040;-1.594;2023-05-19T04:20:40;102054.97;;;12.12;89.80
46211;BME280;52144;48.040;-1.594;2023-05-19T04:23:08;102056.41;;;12.22;89.27
46211;BME280;52144;48.040;-1.594;2023-05-19T04:25:36;102049.22;;;11.96;90.78
46211;BME280;52144;48.040;-1.594;2023-05-19T04:28:06;102053.19;;;12.11;90.18
46211;BME280;52144;48.040;-1.594;2023-05-19T04:30:34;102060.47;;;12.07;89.91
46211;BME280;52144;48.040;-1.594;2023-05-19T04:33:02;102058.19;;;11.93;90.54
46211;BME280;52144;48.040;-1.594;2023-05-19T04:35:32;102069.22;;;12.11;89.44
46211;BME280;52144;48.040;-1.594;2023-05-19T04:37:59;102062.38;;;12.02;90.47
46211;BME280;52144;48.040;-1.594;2023-05-19T04:40:29;102054.47;;;11.99;90.40
46211;BME280;52144;48.040;-1.594;2023-05-19T04:42:57;102060.97;;;12.18;88.47
46211;BME280;52144;48.040;-1.594;2023-05-19T04:45:27;102065.41;;;12.19;88.45
46211;BME280;52144;48.040;-1.594;2023-05-19T04:47:55;102058.47;;;12.42;87.32
46211;BME280;52144;48.040;-1.594;2023-05-19T04:50:24;102069.91;;;12.45;85.64
46211;BME280;52144;48.040;-1.594;2023-05-19T04:52:55;102060.81;;;12.51;86.58
46211;BME280;52144;48.040;-1.594;2023-05-19T04:55:24;102065.50;;;12.71;86.05
46211;BME280;52144;48.040;-1.594;2023-05-19T04:57:52;102065.31;;;12.77;85.43
46211;BME280;52144;48.040;-1.594;2023-05-19T05:00:20;102073.13;;;12.83;84.29
46211;BME280;52144;48.040;-1.594;2023-05-19T05:02:48;102073.28;;;12.79;85.04
46211;BME280;52144;48.040;-1.594;2023-05-19T05:05:16;102073.94;;;12.85;84.36
46211;BME280;52144;48.040;-1.594;2023-05-19T05:07:44;102064.94;;;12.88;84.53
46211;BME280;52144;48.040;-1.594;2023-05-19T05:10:13;102064.38;;;13.05;86.22
46211;BME280;52144;48.040;-1.594;2023-05-19T05:12:41;102064.13;;;12.86;84.24
46211;BME280;52144;48.040;-1.594;2023-05-19T05:15:10;102065.88;;;13.12;85.12
46211;BME280;52144;48.040;-1.594;2023-05-19T05:17:38;102068.63;;;13.11;83.83
46211;BME280;52144;48.040;-1.594;2023-05-19T05:20:07;102074.13;;;13.06;83.39
46211;BME280;52144;48.040;-1.594;2023-05-19T05:22:37;102076.31;;;12.95;83.40
46211;BME280;52144;48.040;-1.594;2023-05-19T05:25:06;102076.66;;;13.11;83.57
46211;BME280;52144;48.040;-1.594;2023-05-19T05:27:35;102075.81;;;13.09;83.41
46211;BME280;52144;48.040;-1.594;2023-05-19T05:30:04;102071.16;;;13.15;83.20
46211;BME280;52144;48.040;-1.594;2023-05-19T05:32:32;102074.50;;;12.95;84.10
46211;BME280;52144;48.040;-1.594;2023-05-19T05:35:00;102069.91;;;13.25;83.75
46211;BME280;52144;48.040;-1.594;2023-05-19T05:37:29;102081.25;;;13.07;84.04
46211;BME280;52144;48.040;-1.594;2023-05-19T05:39:57;102085.56;;;13.38;82.01
46211;BME280;52144;48.040;-1.594;2023-05-19T05:42:24;102079.13;;;13.17;85.08
46211;BME280;52144;48.040;-1.594;2023-05-19T05:44:56;102086.59;;;13.34;84.09
46211;BME280;52144;48.040;-1.594;2023-05-19T05:47:24;102085.78;;;13.55;82.12
46211;BME280;52144;48.040;-1.594;2023-05-19T05:49:53;102091.06;;;13.58;83.01
46211;BME280;52144;48.040;-1.594;2023-05-19T05:52:21;102092.31;;;13.97;81.44
46211;BME280;52144;48.040;-1.594;2023-05-19T05:54:53;102085.47;;;14.12;81.33
46211;BME280;52144;48.040;-1.594;2023-05-19T05:57:21;102092.78;;;13.84;80.99
46211;BME280;52144;48.040;-1.594;2023-05-19T05:59:49;102098.06;;;14.10;80.13
46211;BME280;52144;48.040;-1.594;2023-05-19T06:02:18;102102.31;;;14.15;79.38
46211;BME280;52144;48.040;-1.594;2023-05-19T06:04:47;102104.59;;;14.02;79.89
46211;BME280;52144;48.040;-1.594;2023-05-19T06:07:15;102093.06;;;14.22;79.07
46211;BME280;52144;48.040;-1.594;2023-05-19T06:09:42;102101.84;;;14.50;79.54
46211;BME280;52144;48.040;-1.594;2023-05-19T06:12:10;102093.25;;;14.41;78.88
46211;BME280;52144;48.040;-1.594;2023-05-19T06:14:38;102091.63;;;14.14;79.48
46211;BME280;52144;48.040;-1.594;2023-05-19T06:17:06;102088.09;;;14.13;79.97
46211;BME280;52144;48.040;-1.594;2023-05-19T06:19:35;102091.59;;;13.92;82.19
46211;BME280;52144;48.040;-1.594;2023-05-19T06:22:03;102085.13;;;13.74;82.69
46211;BME280;52144;48.040;-1.594;2023-05-19T06:24:31;102088.19;;;14.10;81.14
46211;BME280;52144;48.040;-1.594;2023-05-19T06:26:59;102087.22;;;13.89;82.44
46211;BME280;52144;48.040;-1.594;2023-05-19T06:29:26;102082.25;;;14.25;79.21
46211;BME280;52144;48.040;-1.594;2023-05-19T06:31:54;102078.06;;;14.40;79.20
46211;BME280;52144;48.040;-1.594;2023-05-19T06:34:22;102085.88;;;14.47;78.12
46211;BME280;52144;48.040;-1.594;2023-05-19T06:36:51;102081.22;;;13.82;82.19
46211;BME280;52144;48.040;-1.594;2023-05-19T06:39:19;102085.34;;;14.15;80.54
46211;BME280;52144;48.040;-1.594;2023-05-19T06:41:47;102081.69;;;14.39;81.81
46211;BME280;52144;48.040;-1.594;2023-05-19T06:44:14;102079.44;;;14.51;81.50
46211;BME280;52144;48.040;-1.594;2023-05-19T06:46:45;102084.53;;;14.80;82.38
46211;BME280;52144;48.040;-1.594;2023-05-19T06:49:13;102089.31;;;14.50;80.70
46211;BME280;52144;48.040;-1.594;2023-05-19T06:51:40;102092.25;;;14.88;78.67
46211;BME280;52144;48.040;-1.594;2023-05-19T06:54:09;102091.78;;;14.33;80.47
46211;BME280;52144;48.040;-1.594;2023-05-19T06:56:41;102080.78;;;14.84;78.67
46211;BME280;52144;48.040;-1.594;2023-05-19T06:59:09;102077.50;;;14.98;78.00
46211;BME280;52144;48.040;-1.594;2023-05-19T07:01:36;102080.28;;;14.75;78.43
46211;BME280;52144;48.040;-1.594;2023-05-19T07:04:04;102077.31;;;15.23;80.09
46211;BME280;52144;48.040;-1.594;2023-05-19T07:06:32;102079.66;;;15.31;78.76
46211;BME280;52144;48.040;-1.594;2023-05-19T07:09:00;102080.09;;;15.00;77.91
46211;BME280;52144;48.040;-1.594;2023-05-19T07:11:32;102076.00;;;14.91;78.06
46211;BME280;52144;48.040;-1.594;2023-05-19T07:14:00;102071.53;;;15.12;78.79
46211;BME280;52144;48.040;-1.594;2023-05-19T07:16:28;102077.25;;;15.04;76.28
46211;BME280;52144;48.040;-1.594;2023-05-19T07:18:56;102074.03;;;15.56;75.84
46211;BME280;52144;48.040;-1.594;2023-05-19T07:21:24;102068.31;;;16.03;75.69
46211;BME280;52144;48.040;-1.594;2023-05-19T07:23:51;102068.94;;;15.50;76.88
46211;BME280;52144;48.040;-1.594;2023-05-19T07:26:19;102064.59;;;15.87;73.08
46211;BME280;52144;48.040;-1.594;2023-05-19T07:28:49;102064.03;;;15.80;74.96
46211;BME280;52144;48.040;-1.594;2023-05-19T07:31:17;102063.31;;;16.15;72.72
46211;BME280;52144;48.040;-1.594;2023-05-19T07:33:45;102061.44;;;16.34;73.84
46211;BME280;52144;48.040;-1.594;2023-05-19T07:36:12;102063.75;;;16.24;74.63
46211;BME280;52144;48.040;-1.594;2023-05-19T07:38:41;102064.47;;;15.90;74.08
46211;BME280;52144;48.040;-1.594;2023-05-19T07:41:09;102070.50;;;16.14;72.30
46211;BME280;52144;48.040;-1.594;2023-05-19T07:43:37;102059.69;;;16.52;71.58
46211;BME280;52144;48.040;-1.594;2023-05-19T07:46:06;102066.53;;;16.40;73.56
46211;BME280;52144;48.040;-1.594;2023-05-19T07:48:34;102069.03;;;16.26;70.98
46211;BME280;52144;48.040;-1.594;2023-05-19T07:51:02;102064.72;;;16.77;70.45
46211;BME280;52144;48.040;-1.594;2023-05-19T07:53:30;102077.69;;;16.69;70.28
46211;BME280;52144;48.040;-1.594;2023-05-19T07:55:58;102073.72;;;16.76;70.53
46211;BME280;52144;48.040;-1.594;2023-05-19T07:58:26;102080.06;;;16.75;71.82
46211;BME280;52144;48.040;-1.594;2023-05-19T08:00:56;102086.75;;;17.03;69.36
46211;BME280;52144;48.040;-1.594;2023-05-19T08:03:25;102077.72;;;17.21;71.40
46211;BME280;52144;48.040;-1.594;2023-05-19T08:05:53;102073.44;;;17.17;71.32
46211;BME280;52144;48.040;-1.594;2023-05-19T08:08:21;102077.00;;;17.35;67.81
46211;BME280;52144;48.040;-1.594;2023-05-19T08:10:48;102073.78;;;17.62;67.45
46211;BME280;52144;48.040;-1.594;2023-05-19T08:13:16;102082.25;;;17.03;69.56
46211;BME280;52144;48.040;-1.594;2023-05-19T08:15:44;102073.41;;;17.52;70.17
46211;BME280;52144;48.040;-1.594;2023-05-19T08:18:12;102080.19;;;17.26;69.83
46211;BME280;52144;48.040;-1.594;2023-05-19T08:20:41;102077.88;;;17.36;68.38
46211;BME280;52144;48.040;-1.594;2023-05-19T08:23:09;102072.28;;;17.23;67.49
46211;BME280;52144;48.040;-1.594;2023-05-19T08:25:37;102061.50;;;17.56;65.91
46211;BME280;52144;48.040;-1.594;2023-05-19T08:28:06;102075.22;;;17.18;67.25
46211;BME280;52144;48.040;-1.594;2023-05-19T08:30:33;102072.53;;;17.52;69.07
46211;BME280;52144;48.040;-1.594;2023-05-19T08:33:01;102064.13;;;17.58;66.86
46211;BME280;52144;48.040;-1.594;2023-05-19T08:35:29;102069.72;;;17.37;68.20
46211;BME280;52144;48.040;-1.594;2023-05-19T08:37:58;102058.56;;;17.28;67.61
46211;BME280;52144;48.040;-1.594;2023-05-19T08:40:27;102051.94;;;17.84;68.98
46211;BME280;52144;48.040;-1.594;2023-05-19T08:42:57;102052.16;;;17.63;67.98
46211;BME280;52144;48.040;-1.594;2023-05-19T08:45:25;102058.06;;;18.03;66.59
46211;BME280;52144;48.040;-1.594;2023-05-19T08:47:53;102063.28;;;17.40;67.72
46211;BME280;52144;48.040;-1.594;2023-05-19T08:50:23;102059.16;;;17.50;66.00
46211;BME280;52144;48.040;-1.594;2023-05-19T08:53:03;102043.28;;;18.11;64.46
46211;BME280;52144;48.040;-1.594;2023-05-19T08:55:55;102035.81;;;18.16;66.70
46211;BME280;52144;48.040;-1.594;2023-05-19T08:58:25;102027.44;;;18.36;64.30
46211;BME280;52144;48.040;-1.594;2023-05-19T09:00:55;102017.72;;;18.94;65.86
46211;BME280;52144;48.040;-1.594;2023-05-19T09:03:24;102019.84;;;18.89;61.91
46211;BME280;52144;48.040;-1.594;2023-05-19T09:05:54;102020.88;;;18.87;62.12
46211;BME280;52144;48.040;-1.594;2023-05-19T09:08:23;102021.94;;;18.84;65.35
46211;BME280;52144;48.040;-1.594;2023-05-19T09:10:51;102021.09;;;18.68;64.21
46211;BME280;52144;48.040;-1.594;2023-05-19T09:13:19;102013.00;;;18.98;63.07
46211;BME280;52144;48.040;-1.594;2023-05-19T09:15:47;102017.97;;;19.20;61.42
46211;BME280;52144;48.040;-1.594;2023-05-19T09:18:16;102011.56;;;19.07;62.32
46211;BME280;52144;48.040;-1.594;2023-05-19T09:20:45;102005.47;;;19.03;63.38
46211;BME280;52144;48.040;-1.594;2023-05-19T09:23:14;102001.00;;;19.32;62.84
46211;BME280;52144;48.040;-1.594;2023-05-19T09:25:47;102000.75;;;19.07;63.26
46211;BME280;52144;48.040;-1.594;2023-05-19T09:28:22;102005.03;;;19.39;62.37
46211;BME280;52144;48.040;-1.594;2023-05-19T09:30:58;102000.69;;;19.37;62.33
46211;BME280;52144;48.040;-1.594;2023-05-19T09:33:26;101998.00;;;19.51;62.98
46211;BME280;52144;48.040;-1.594;2023-05-19T09:35:55;101990.28;;;19.74;59.60
46211;BME280;52144;48.040;-1.594;2023-05-19T09:38:23;101999.44;;;19.42;62.48
46211;BME280;52144;48.040;-1.594;2023-05-19T09:40:55;101991.03;;;19.61;62.37
46211;BME280;52144;48.040;-1.594;2023-05-19T09:43:26;101997.81;;;19.40;60.47
46211;BME280;52144;48.040;-1.594;2023-05-19T09:45:56;101985.16;;;19.55;59.64
46211;BME280;52144;48.040;-1.594;2023-05-19T09:48:25;101982.16;;;19.59;61.02
46211;BME280;52144;48.040;-1.594;2023-05-19T09:50:53;101971.94;;;20.06;59.19
46211;BME280;52144;48.040;-1.594;2023-05-19T09:53:23;101985.41;;;19.93;57.68
46211;BME280;52144;48.040;-1.594;2023-05-19T09:55:55;101988.53;;;19.44;60.13
46211;BME280;52144;48.040;-1.594;2023-05-19T09:58:24;101975.91;;;20.00;61.45
46211;BME280;52144;48.040;-1.594;2023-05-19T10:00:52;101981.44;;;19.99;57.77
46211;BME280;52144;48.040;-1.594;2023-05-19T10:03:21;101980.50;;;20.13;56.63
46211;BME280;52144;48.040;-1.594;2023-05-19T10:05:49;101971.84;;;20.08;57.83
46211;BME280;52144;48.040;-1.594;2023-05-19T10:08:19;101973.47;;;20.37;59.85
46211;BME280;52144;48.040;-1.594;2023-05-19T10:10:47;101969.13;;;20.08;58.71
46211;BME280;52144;48.040;-1.594;2023-05-19T10:13:16;101980.19;;;20.44;58.14
46211;BME280;52144;48.040;-1.594;2023-05-19T10:15:45;101971.16;;;19.77;58.50
46211;BME280;52144;48.040;-1.594;2023-05-19T10:18:25;101968.09;;;20.50;58.11
46211;BME280;52144;48.040;-1.594;2023-05-19T10:20:53;101969.31;;;20.04;58.35
46211;BME280;52144;48.040;-1.594;2023-05-19T10:23:23;101956.88;;;20.29;60.09
46211;BME280;52144;48.040;-1.594;2023-05-19T10:25:55;101954.84;;;20.06;57.75
46211;BME280;52144;48.040;-1.594;2023-05-19T10:28:30;101969.53;;;20.56;57.27
46211;BME280;52144;48.040;-1.594;2023-05-19T10:31:01;101953.00;;;19.64;57.54
46211;BME280;52144;48.040;-1.594;2023-05-19T10:33:40;101962.84;;;19.80;58.24
46211;BME280;52144;48.040;-1.594;2023-05-19T10:36:20;101959.66;;;20.55;58.98
46211;BME280;52144;48.040;-1.594;2023-05-19T10:38:55;101957.78;;;21.21;56.71
46211;BME280;52144;48.040;-1.594;2023-05-19T10:41:28;101953.22;;;21.21;58.70
46211;BME280;52144;48.040;-1.594;2023-05-19T10:44:08;101949.88;;;21.05;57.03
46211;BME280;52144;48.040;-1.594;2023-05-19T10:46:40;101945.44;;;20.78;56.29
46211;BME280;52144;48.040;-1.594;2023-05-19T10:49:08;101944.44;;;20.79;56.68
46211;BME280;52144;48.040;-1.594;2023-05-19T10:51:36;101941.19;;;21.00;55.96
46211;BME280;52144;48.040;-1.594;2023-05-19T10:54:07;101948.44;;;21.12;53.54
46211;BME280;52144;48.040;-1.594;2023-05-19T10:56:38;101940.66;;;21.08;56.39
46211;BME280;52144;48.040;-1.594;2023-05-19T10:59:29;101952.69;;;20.91;56.20
46211;BME280;52144;48.040;-1.594;2023-05-19T11:02:02;101948.56;;;20.98;55.09
46211;BME280;52144;48.040;-1.594;2023-05-19T11:04:44;101951.34;;;20.31;56.78
46211;BME280;52144;48.040;-1.594;2023-05-19T11:07:17;101931.75;;;19.73;56.13
46211;BME280;52144;48.040;-1.594;2023-05-19T11:09:48;101932.22;;;20.87;55.87
46211;BME280;52144;48.040;-1.594;2023-05-19T11:12:19;101941.69;;;20.54;56.55
46211;BME280;52144;48.040;-1.594;2023-05-19T11:14:51;101929.78;;;19.89;56.01
46211;BME280;52144;48.040;-1.594;2023-05-19T11:17:19;101932.00;;;20.64;54.70
46211;BME280;52144;48.040;-1.594;2023-05-19T11:19:53;101932.06;;;20.22;55.86
46211;BME280;52144;48.040;-1.594;2023-05-19T11:22:22;101925.25;;;20.70;55.83
46211;BME280;52144;48.040;-1.594;2023-05-19T11:24:53;101924.81;;;20.63;56.10
46211;BME280;52144;48.040;-1.594;2023-05-19T11:27:25;101925.06;;;20.86;54.52
46211;BME280;52144;48.040;-1.594;2023-05-19T11:29:56;101910.25;;;21.41;53.06
46211;BME280;52144;48.040;-1.594;2023-05-19T11:32:27;101910.75;;;20.96;53.80
46211;BME280;52144;48.040;-1.594;2023-05-19T11:34:55;101906.28;;;21.34;53.74
46211;BME280;52144;48.040;-1.594;2023-05-19T11:37:23;101919.63;;;20.73;53.43
46211;BME280;52144;48.040;-1.594;2023-05-19T11:39:52;101917.16;;;20.82;54.17
46211;BME280;52144;48.040;-1.594;2023-05-19T11:42:19;101911.38;;;21.26;54.20
46211;BME280;52144;48.040;-1.594;2023-05-19T11:44:48;101901.63;;;21.10;53.55
46211;BME280;52144;48.040;-1.594;2023-05-19T11:47:17;101911.78;;;21.58;54.24
46211;BME280;52144;48.040;-1.594;2023-05-19T11:49:47;101903.78;;;22.04;52.48
46211;BME280;52144;48.040;-1.594;2023-05-19T11:52:15;101898.09;;;22.08;51.43
46211;BME280;52144;48.040;-1.594;2023-05-19T11:54:47;101896.28;;;21.84;51.68
46211;BME280;52144;48.040;-1.594;2023-05-19T11:57:15;101897.09;;;20.85;52.72
46211;BME280;52144;48.040;-1.594;2023-05-19T11:59:43;101887.44;;;21.93;52.20
46211;BME280;52144;48.040;-1.594;2023-05-19T12:02:17;101891.72;;;21.84;51.84
46211;BME280;52144;48.040;-1.594;2023-05-19T12:04:45;101888.91;;;21.86;52.92
46211;BME280;52144;48.040;-1.594;2023-05-19T12:07:15;101872.41;;;21.52;52.25
46211;BME280;52144;48.040;-1.594;2023-05-19T12:09:44;101869.66;;;22.71;49.64
46211;BME280;52144;48.040;-1.594;2023-05-19T12:12:13;101875.81;;;22.51;50.49
46211;BME280;52144;48.040;-1.594;2023-05-19T12:14:41;101870.28;;;21.93;52.06
46211;BME280;52144;48.040;-1.594;2023-05-19T12:17:10;101873.19;;;21.78;49.37
46211;BME280;52144;48.040;-1.594;2023-05-19T12:19:40;101866.16;;;21.76;50.03
46211;BME280;52144;48.040;-1.594;2023-05-19T12:22:10;101873.28;;;22.25;51.05
46211;BME280;52144;48.040;-1.594;2023-05-19T12:24:39;101864.84;;;22.17;50.21
46211;BME280;52144;48.040;-1.594;2023-05-19T12:27:09;101883.28;;;22.00;49.81
46211;BME280;52144;48.040;-1.594;2023-05-19T12:29:39;101883.28;;;21.27;52.18
46211;BME280;52144;48.040;-1.594;2023-05-19T12:32:07;101869.44;;;21.68;52.60
46211;BME280;52144;48.040;-1.594;2023-05-19T12:34:36;101866.72;;;21.92;51.42
46211;BME280;52144;48.040;-1.594;2023-05-19T12:37:05;101870.78;;;21.37;51.72
46211;BME280;52144;48.040;-1.594;2023-05-19T12:39:33;101867.50;;;21.81;50.82
46211;BME280;52144;48.040;-1.594;2023-05-19T12:42:01;101870.38;;;21.30;50.67
46211;BME280;52144;48.040;-1.594;2023-05-19T12:44:30;101868.84;;;22.24;48.24
46211;BME280;52144;48.040;-1.594;2023-05-19T12:46:57;101866.38;;;21.73;49.92
46211;BME280;52144;48.040;-1.594;2023-05-19T12:49:27;101864.50;;;21.97;50.36
46211;BME280;52144;48.040;-1.594;2023-05-19T12:51:54;101865.25;;;22.70;50.33
46211;BME280;52144;48.040;-1.594;2023-05-19T12:54:24;101860.66;;;21.89;50.53